Feasterville Trevose, Pennsylvania
Current Conditions -  °F | °C
As of 1:05 PM on Saturday 20 Dec 2014 (Local Time) from KPNE Reporting Station
Overcast Overcast  
Wind Chill: 35°   Ceiling: 3000
Heat Index: 35°   Visibility: 10mi
Dew Point: 19°   Wind: 0mph
Humidity: 52%   Direction: NA
Pressure: 30.29"   Gusts: NA
Location:  40.15°N, 74.98°W
Report Text: KPNE 201805Z AUTO 00000KT 10SM OVC030 02/M07 A3029 RMK AO2 T00171072 TSNO
Loading
Personal Weather Stations






























Interactive Weather Map New forecast layout! Learn more

10-Day Weather Forecast

Advertisements
Track Severe Weather on mobile